Aviation Digital Data Service (ADDS)

Output produced by METARs form (0940 UTC 25 August 2016)
found at http://www.aviationweather.gov/adds/metars/
 
KALB 250926Z 2509/2606 17008G14KT P6SM SCT250 
     FM251400 17012G21KT P6SM SCT050 BKN120 
     FM251800 18012G18KT P6SM VCSH BKN050 OVC100 
     FM260200 18005KT P6SM VCSH SCT020 BKN040